Time,TemperatureF,DewpointF,PressureIn,WindDirection,WindDirectionDegrees,WindSpeedMPH,WindSpeedGustMPH,Humidity,HourlyPrecipIn,Conditions,Clouds,dailyrainin,SolarRadiationWatts/m^2,SoftwareType,DateUTC
2013-01-17 00:02:00,59.0,54.0,-100.00,SE,132,3.0,15.0,84,0.00,,,0.00,0.000000,,2013-01-17 10:02:00,
2013-01-17 00:12:00,59.0,54.0,-100.00,SE,132,3.0,15.0,84,0.00,,,0.00,0.000000,,2013-01-17 10:12:00,
2013-01-17 00:22:00,59.0,54.0,-100.00,SE,132,3.0,15.0,84,0.00,,,0.00,0.000000,,2013-01-17 10:22:00,
2013-01-17 00:32:00,59.0,54.0,-100.00,SE,132,3.0,15.0,84,0.00,,,0.00,0.000000,,2013-01-17 10:32:00,
2013-01-17 01:02:00,57.0,49.0,-100.00,North,3,2.0,9.0,74,0.00,,,0.00,0.000000,,2013-01-17 11:02:00,
2013-01-17 01:12:00,57.0,49.0,-100.00,North,3,2.0,9.0,74,0.00,,,0.00,0.000000,,2013-01-17 11:12:00,
2013-01-17 01:22:00,57.0,49.0,-100.00,North,3,2.0,9.0,74,0.00,,,0.00,0.000000,,2013-01-17 11:22:00,
2013-01-17 01:32:00,57.0,49.0,-100.00,North,3,2.0,9.0,74,0.00,,,0.00,0.000000,,2013-01-17 11:32:00,
2013-01-17 02:02:00,55.0,49.0,-100.00,NNE,30,1.0,6.0,81,0.00,,,0.00,0.000000,,2013-01-17 12:02:00,
2013-01-17 02:12:00,55.0,49.0,-100.00,NNE,30,1.0,6.0,81,0.00,,,0.00,0.000000,,2013-01-17 12:12:00,
2013-01-17 02:22:00,55.0,49.0,-100.00,NNE,30,1.0,6.0,81,0.00,,,0.00,0.000000,,2013-01-17 12:22:00,
2013-01-17 02:32:00,55.0,49.0,-100.00,NNE,30,1.0,6.0,81,0.00,,,0.00,0.000000,,2013-01-17 12:32:00,
2013-01-17 02:53:00,56.0,49.0,-100.00,NE,34,2.0,6.0,76,0.00,,,0.00,0.000000,,2013-01-17 12:53:00,
2013-01-17 03:03:00,56.0,49.0,-100.00,NE,34,2.0,6.0,76,0.00,,,0.00,0.000000,,2013-01-17 13:03:00,
2013-01-17 03:12:00,56.0,49.0,-100.00,NE,34,2.0,6.0,76,0.00,,,0.00,0.000000,,2013-01-17 13:12:00,
2013-01-17 03:22:00,56.0,49.0,-100.00,NE,34,2.0,6.0,76,0.00,,,0.00,0.000000,,2013-01-17 13:22:00,
2013-01-17 03:33:00,56.0,49.0,-100.00,NE,34,2.0,6.0,76,0.00,,,0.00,0.000000,,2013-01-17 13:33:00,
2013-01-17 04:03:00,56.0,52.0,-100.00,SE,138,2.0,5.0,86,0.00,,,0.00,0.000000,,2013-01-17 14:03:00,
2013-01-17 04:12:00,56.0,52.0,-100.00,SE,138,2.0,5.0,86,0.00,,,0.00,0.000000,,2013-01-17 14:12:00,
2013-01-17 04:23:00,56.0,52.0,-100.00,SE,138,2.0,5.0,86,0.00,,,0.00,0.000000,,2013-01-17 14:23:00,
2013-01-17 04:32:00,56.0,52.0,-100.00,SE,138,2.0,5.0,86,0.00,,,0.00,0.000000,,2013-01-17 14:32:00,
2013-01-17 04:53:00,57.0,51.0,-100.00,NNE,26,1.0,5.0,81,0.00,,,0.00,0.000000,,2013-01-17 14:53:00,
2013-01-17 05:03:00,57.0,51.0,-100.00,NNE,26,1.0,5.0,81,0.00,,,0.00,0.000000,,2013-01-17 15:03:00,
2013-01-17 05:12:00,57.0,51.0,-100.00,NNE,26,1.0,5.0,81,0.00,,,0.00,0.000000,,2013-01-17 15:12:00,
2013-01-17 05:22:00,57.0,51.0,-100.00,NNE,26,1.0,5.0,81,0.00,,,0.00,0.000000,,2013-01-17 15:22:00,
2013-01-17 05:33:00,57.0,51.0,-100.00,NNE,26,1.0,5.0,81,0.00,,,0.00,0.000000,,2013-01-17 15:33:00,
2013-01-17 05:53:00,58.0,53.0,-100.00,North,8,3.0,6.0,82,0.00,,,0.00,0.000000,,2013-01-17 15:53:00,
2013-01-17 06:02:00,58.0,53.0,-100.00,North,8,3.0,6.0,82,0.00,,,0.00,0.000000,,2013-01-17 16:02:00,
2013-01-17 06:12:00,58.0,53.0,-100.00,North,8,3.0,6.0,82,0.00,,,0.00,0.000000,,2013-01-17 16:12:00,
2013-01-17 06:22:00,58.0,53.0,-100.00,North,8,3.0,6.0,82,0.00,,,0.00,0.000000,,2013-01-17 16:22:00,
2013-01-17 06:33:00,58.0,53.0,-100.00,North,8,3.0,6.0,82,0.00,,,0.00,0.000000,,2013-01-17 16:33:00,
2013-01-17 07:02:00,60.0,52.0,-100.00,NNE,13,4.0,6.0,76,0.00,,,0.00,0.000000,,2013-01-17 17:02:00,
2013-01-17 07:12:00,60.0,52.0,-100.00,NNE,13,4.0,6.0,76,0.00,,,0.00,0.000000,,2013-01-17 17:12:00,
2013-01-17 07:22:00,60.0,52.0,-100.00,NNE,13,4.0,6.0,76,0.00,,,0.00,0.000000,,2013-01-17 17:22:00,
2013-01-17 07:32:00,60.0,52.0,-100.00,NNE,13,4.0,6.0,76,0.00,,,0.00,0.000000,,2013-01-17 17:32:00,
2013-01-17 08:03:00,56.0,54.0,-100.00,East,97,2.0,7.0,93,0.00,,,0.00,0.000000,,2013-01-17 18:03:00,
2013-01-17 08:12:00,56.0,54.0,-100.00,East,97,2.0,7.0,93,0.00,,,0.00,0.000000,,2013-01-17 18:12:00,
2013-01-17 08:22:00,56.0,54.0,-100.00,East,97,2.0,7.0,93,0.00,,,0.00,0.000000,,2013-01-17 18:22:00,
2013-01-17 08:33:00,56.0,54.0,-100.00,East,97,2.0,7.0,93,0.00,,,0.00,0.000000,,2013-01-17 18:33:00,
2013-01-17 09:03:00,60.0,55.0,-100.00,NNE,15,3.0,7.0,83,0.00,,,0.00,46.000000,,2013-01-17 19:03:00,
2013-01-17 09:12:00,60.0,55.0,-100.00,NNE,15,3.0,7.0,83,0.00,,,0.00,46.000000,,2013-01-17 19:12:00,
2013-01-17 09:22:00,60.0,55.0,-100.00,NNE,15,3.0,7.0,83,0.00,,,0.00,46.000000,,2013-01-17 19:22:00,
2013-01-17 09:32:00,60.0,55.0,-100.00,NNE,15,3.0,7.0,83,0.00,,,0.00,46.000000,,2013-01-17 19:32:00,
2013-01-17 10:02:00,66.0,54.0,-100.00,NE,36,1.0,8.0,65,0.00,,,0.00,363.000000,,2013-01-17 20:02:00,
2013-01-17 10:12:00,66.0,54.0,-100.00,NE,36,1.0,8.0,65,0.00,,,0.00,363.000000,,2013-01-17 20:12:00,
2013-01-17 10:22:00,66.0,54.0,-100.00,NE,36,1.0,8.0,65,0.00,,,0.00,363.000000,,2013-01-17 20:22:00,
2013-01-17 10:33:00,66.0,54.0,-100.00,NE,36,1.0,8.0,65,0.00,,,0.00,363.000000,,2013-01-17 20:33:00,
2013-01-17 10:54:00,67.0,58.0,-100.00,SW,221,2.0,9.0,72,0.00,,,0.00,497.000000,,2013-01-17 20:54:00,
2013-01-17 11:02:00,67.0,58.0,-100.00,SW,221,2.0,9.0,72,0.00,,,0.00,497.000000,,2013-01-17 21:02:00,
2013-01-17 11:12:00,67.0,58.0,-100.00,SW,221,2.0,9.0,72,0.00,,,0.00,497.000000,,2013-01-17 21:12:00,
2013-01-17 11:22:00,67.0,58.0,-100.00,SW,221,2.0,9.0,72,0.00,,,0.00,497.000000,,2013-01-17 21:22:00,
2013-01-17 11:33:00,67.0,58.0,-100.00,SW,221,2.0,9.0,72,0.00,,,0.00,497.000000,,2013-01-17 21:33:00,
2013-01-17 11:53:00,65.0,59.0,-100.00,ENE,69,2.0,8.0,81,0.00,,,0.00,198.000000,,2013-01-17 21:53:00,
2013-01-17 12:03:00,65.0,59.0,-100.00,ENE,69,2.0,8.0,81,0.00,,,0.00,198.000000,,2013-01-17 22:03:00,
2013-01-17 12:12:00,65.0,59.0,-100.00,ENE,69,2.0,8.0,81,0.00,,,0.00,198.000000,,2013-01-17 22:12:00,
2013-01-17 12:22:00,65.0,59.0,-100.00,ENE,69,2.0,8.0,81,0.00,,,0.00,198.000000,,2013-01-17 22:22:00,
2013-01-17 12:32:00,65.0,59.0,-100.00,ENE,69,2.0,8.0,81,0.00,,,0.00,198.000000,,2013-01-17 22:32:00,
2013-01-17 13:02:00,66.0,57.0,-100.00,North,4,2.0,11.0,74,0.00,,,0.00,535.000000,,2013-01-17 23:02:00,
2013-01-17 13:12:00,66.0,57.0,-100.00,North,4,2.0,11.0,74,0.00,,,0.00,535.000000,,2013-01-17 23:12:00,
2013-01-17 13:22:00,66.0,57.0,-100.00,North,4,2.0,11.0,74,0.00,,,0.00,535.000000,,2013-01-17 23:22:00,
2013-01-17 13:32:00,66.0,57.0,-100.00,North,4,2.0,11.0,74,0.00,,,0.00,535.000000,,2013-01-17 23:32:00,
2013-01-17 14:02:00,63.0,55.0,-100.00,NE,50,2.0,7.0,76,0.00,,,-99.99,240.000000,,2013-01-18 00:02:00,
2013-01-17 14:12:00,63.0,55.0,-100.00,NE,50,2.0,7.0,76,0.00,,,-99.99,240.000000,,2013-01-18 00:12:00,
2013-01-17 14:23:00,63.0,55.0,-100.00,NE,50,2.0,7.0,76,0.00,,,-99.99,240.000000,,2013-01-18 00:23:00,
2013-01-17 14:32:00,63.0,55.0,-100.00,NE,50,2.0,7.0,76,0.00,,,-99.99,240.000000,,2013-01-18 00:32:00,
2013-01-17 14:53:00,60.0,57.0,-100.00,NW,324,2.0,6.0,90,0.01,,,0.01,125.000000,,2013-01-18 00:53:00,
2013-01-17 15:02:00,60.0,57.0,-100.00,NW,324,2.0,6.0,90,0.01,,,0.01,125.000000,,2013-01-18 01:02:00,
2013-01-17 15:12:00,60.0,57.0,-100.00,NW,324,2.0,6.0,90,0.01,,,0.01,125.000000,,2013-01-18 01:12:00,
2013-01-17 15:22:00,60.0,57.0,-100.00,NW,324,2.0,6.0,90,0.01,,,0.01,125.000000,,2013-01-18 01:22:00,
2013-01-17 15:32:00,60.0,57.0,-100.00,NW,324,2.0,6.0,90,0.01,,,0.01,125.000000,,2013-01-18 01:32:00,
2013-01-17 15:53:00,65.0,59.0,-100.00,ENE,72,1.0,6.0,80,0.02,,,0.03,298.000000,,2013-01-18 01:53:00,
2013-01-17 16:02:00,65.0,59.0,-100.00,ENE,72,1.0,6.0,80,0.02,,,0.03,298.000000,,2013-01-18 02:02:00,
2013-01-17 16:12:00,65.0,59.0,-100.00,ENE,72,1.0,6.0,80,0.02,,,0.03,298.000000,,2013-01-18 02:12:00,
2013-01-17 16:22:00,65.0,59.0,-100.00,ENE,72,1.0,6.0,80,0.02,,,0.03,298.000000,,2013-01-18 02:22:00,
2013-01-17 16:32:00,65.0,59.0,-100.00,ENE,72,1.0,6.0,80,0.02,,,0.03,298.000000,,2013-01-18 02:32:00,
2013-01-17 16:53:00,66.0,58.0,-100.00,NNE,28,2.0,10.0,76,0.00,,,0.03,284.000000,,2013-01-18 02:53:00,
2013-01-17 17:02:00,66.0,58.0,-100.00,NNE,28,2.0,10.0,76,0.00,,,0.03,284.000000,,2013-01-18 03:02:00,
2013-01-17 17:12:00,66.0,58.0,-100.00,NNE,28,2.0,10.0,76,0.00,,,0.03,284.000000,,2013-01-18 03:12:00,
2013-01-17 17:22:00,66.0,58.0,-100.00,NNE,28,2.0,10.0,76,0.00,,,0.03,284.000000,,2013-01-18 03:22:00,
2013-01-17 17:32:00,66.0,58.0,-100.00,NNE,28,2.0,10.0,76,0.00,,,0.03,284.000000,,2013-01-18 03:32:00,
2013-01-17 17:53:00,66.0,57.0,-100.00,West,264,2.0,9.0,73,0.00,,,0.03,212.000000,,2013-01-18 03:53:00,
2013-01-17 18:02:00,66.0,57.0,-100.00,West,264,2.0,9.0,73,0.00,,,0.03,212.000000,,2013-01-18 04:02:00,
2013-01-17 18:12:00,66.0,57.0,-100.00,West,264,2.0,9.0,73,0.00,,,0.03,212.000000,,2013-01-18 04:12:00,
2013-01-17 18:22:00,66.0,57.0,-100.00,West,264,2.0,9.0,73,0.00,,,0.03,212.000000,,2013-01-18 04:22:00,
2013-01-17 18:32:00,66.0,57.0,-100.00,West,264,2.0,9.0,73,0.00,,,0.03,212.000000,,2013-01-18 04:32:00,
2013-01-17 18:53:00,61.0,54.0,-100.00,SW,233,1.0,7.0,79,0.00,,,0.03,104.000000,,2013-01-18 04:53:00,
2013-01-17 19:03:00,61.0,54.0,-100.00,SW,233,1.0,7.0,79,0.00,,,0.03,104.000000,,2013-01-18 05:03:00,
2013-01-17 19:12:00,61.0,54.0,-100.00,SW,233,1.0,7.0,79,0.00,,,0.03,104.000000,,2013-01-18 05:12:00,
2013-01-17 19:22:00,61.0,54.0,-100.00,SW,233,1.0,7.0,79,0.00,,,0.03,104.000000,,2013-01-18 05:22:00,
2013-01-17 19:32:00,61.0,54.0,-100.00,SW,233,1.0,7.0,79,0.00,,,0.03,104.000000,,2013-01-18 05:32:00,
2013-01-17 20:02:00,59.0,56.0,-100.00,NNW,341,1.0,3.0,91,0.00,,,0.03,1.000000,,2013-01-18 06:02:00,
2013-01-17 20:12:00,59.0,56.0,-100.00,NNW,341,1.0,3.0,91,0.00,,,0.03,1.000000,,2013-01-18 06:12:00,
2013-01-17 20:22:00,59.0,56.0,-100.00,NNW,341,1.0,3.0,91,0.00,,,0.03,1.000000,,2013-01-18 06:22:00,
2013-01-17 20:32:00,59.0,56.0,-100.00,NNW,341,1.0,3.0,91,0.00,,,0.03,1.000000,,2013-01-18 06:32:00,
2013-01-17 21:02:00,57.0,55.0,-100.00,ESE,104,4.0,4.0,94,0.00,,,0.03,0.000000,,2013-01-18 07:02:00,
2013-01-17 21:12:00,57.0,55.0,-100.00,ESE,104,4.0,4.0,94,0.00,,,0.03,0.000000,,2013-01-18 07:12:00,
2013-01-17 21:22:00,57.0,55.0,-100.00,ESE,104,4.0,4.0,94,0.00,,,0.03,0.000000,,2013-01-18 07:22:00,
2013-01-17 21:32:00,57.0,55.0,-100.00,ESE,104,4.0,4.0,94,0.00,,,0.03,0.000000,,2013-01-18 07:32:00,
2013-01-17 22:02:00,60.0,55.0,-100.00,North,350,2.0,6.0,85,0.00,,,0.03,0.000000,,2013-01-18 08:02:00,
2013-01-17 22:11:00,60.0,55.0,-100.00,North,350,2.0,6.0,85,0.00,,,0.03,0.000000,,2013-01-18 08:11:00,
2013-01-17 22:22:00,60.0,55.0,-100.00,North,350,2.0,6.0,85,0.00,,,0.03,0.000000,,2013-01-18 08:22:00,
2013-01-17 22:32:00,60.0,55.0,-100.00,North,350,2.0,6.0,85,0.00,,,0.03,0.000000,,2013-01-18 08:32:00,
2013-01-17 23:02:00,57.0,53.0,-100.00,ENE,65,2.0,4.0,86,0.00,,,0.03,0.000000,,2013-01-18 09:02:00,
2013-01-17 23:12:00,57.0,53.0,-100.00,ENE,65,2.0,4.0,86,0.00,,,0.03,0.000000,,2013-01-18 09:12:00,
2013-01-17 23:22:00,57.0,53.0,-100.00,ENE,65,2.0,4.0,86,0.00,,,0.03,0.000000,,2013-01-18 09:22:00,
2013-01-17 23:32:00,57.0,53.0,-100.00,ENE,65,2.0,4.0,86,0.00,,,0.03,0.000000,,2013-01-18 09:32:00,
2013-01-17 23:52:00,58.0,54.0,-100.00,NNE,12,1.0,3.0,88,0.00,,,0.03,0.000000,,2013-01-18 09:52:00,